Time;durP1;ratioP1;P1;durP2;ratioP2;P2;SDS_P1;SDS_P2;PMS_P1;PMS_P2;Temp;Humidity;BMP_temperature;BMP_pressure;BME280_temperature;BME280_humidity;BME280_pressure;Samples;Min_cycle;Max_cycle;Signal;HPM_P1;HPM_P2
2023/04/05 00:00:58;;;;;;;0.40;0.40;;;1.50;99.90;;;;;;5035313;28;20191;-86
2023/04/05 00:03:24;;;;;;;0.40;0.40;;;1.40;99.90;;;;;;5044813;28;20226;-86
2023/04/05 00:05:53;;;;;;;0.37;0.37;;;1.40;99.90;;;;;;5048717;28;20179;-86
2023/04/05 00:08:25;;;;;;;0.40;0.40;;;1.50;99.90;;;;;;5047098;28;20474;-86
2023/04/05 00:10:52;;;;;;;0.50;0.50;;;1.50;99.90;;;;;;5031080;28;20442;-86
2023/04/05 00:13:17;;;;;;;0.50;0.50;;;1.50;99.90;;;;;;5048578;28;20444;-86
2023/04/05 00:15:43;;;;;;;0.40;0.40;;;1.40;99.90;;;;;;5048219;28;20488;-86
2023/04/05 00:18:20;;;;;;;0.37;0.37;;;1.40;99.90;;;;;;5049410;28;20268;-86
2023/04/05 00:20:47;;;;;;;0.40;0.40;;;1.30;99.90;;;;;;5036460;28;20194;-86
2023/04/05 00:23:15;;;;;;;0.30;0.30;;;1.30;99.90;;;;;;5031008;28;20897;-86
2023/04/05 00:25:41;;;;;;;0.50;0.50;;;1.40;99.90;;;;;;5041071;28;20529;-85
2023/04/05 00:28:06;;;;;;;0.47;0.47;;;1.30;99.90;;;;;;5039366;28;20646;-86
2023/04/05 00:30:32;;;;;;;0.47;0.47;;;1.30;99.90;;;;;;5043096;28;20440;-86
2023/04/05 00:32:57;;;;;;;0.33;0.33;;;1.30;99.90;;;;;;5062168;28;20217;-86
2023/04/05 00:35:26;;;;;;;0.43;0.43;;;1.50;99.90;;;;;;5049484;28;20225;-86
2023/04/05 00:37:52;;;;;;;0.37;0.37;;;1.50;99.90;;;;;;5050637;28;20649;-86
2023/04/05 00:40:17;;;;;;;0.40;0.40;;;1.40;99.90;;;;;;5034541;28;20447;-86
2023/04/05 00:42:43;;;;;;;0.40;0.40;;;1.50;99.90;;;;;;5035640;28;20294;-86
2023/04/05 00:45:09;;;;;;;0.40;0.40;;;1.50;99.90;;;;;;5028896;28;20182;-86
2023/04/05 00:47:35;;;;;;;0.47;0.47;;;1.40;99.90;;;;;;5048177;28;20218;-86
2023/04/05 00:50:01;;;;;;;0.40;0.40;;;1.40;99.90;;;;;;5028903;28;20443;-86
2023/04/05 00:52:27;;;;;;;0.50;0.50;;;1.30;99.90;;;;;;5039806;28;20499;-85
2023/04/05 00:54:53;;;;;;;0.50;0.50;;;1.10;99.90;;;;;;5035009;28;20242;-85
2023/04/05 00:57:19;;;;;;;0.50;0.50;;;0.90;99.90;;;;;;5047726;28;20469;-86
2023/04/05 00:59:45;;;;;;;0.40;0.40;;;1.00;99.90;;;;;;5033130;28;20249;-86
2023/04/05 01:02:15;;;;;;;0.50;0.50;;;1.10;99.90;;;;;;5047239;28;20452;-85
2023/04/05 01:04:48;;;;;;;0.40;0.40;;;1.10;99.90;;;;;;5034346;28;20203;-86
2023/04/05 01:07:27;;;;;;;0.40;0.40;;;1.00;99.90;;;;;;5048565;28;20506;-86
2023/04/05 01:09:58;;;;;;;0.50;0.50;;;0.80;99.90;;;;;;5046447;28;20788;-86
2023/04/05 01:12:28;;;;;;;0.50;0.50;;;0.70;99.90;;;;;;5051822;28;20831;-86
2023/04/05 01:14:54;;;;;;;0.40;0.40;;;0.50;99.90;;;;;;5051848;28;20504;-86
2023/04/05 01:17:22;;;;;;;0.50;0.50;;;0.70;99.90;;;;;;5045409;28;20446;-86
2023/04/05 01:19:57;;;;;;;0.40;0.40;;;0.50;99.90;;;;;;5032520;28;20428;-86
2023/04/05 01:22:25;;;;;;;0.50;0.50;;;0.70;99.90;;;;;;5032947;28;20433;-86
2023/04/05 01:25:11;;;;;;;0.50;0.50;;;0.60;99.90;;;;;;5043909;28;20425;-86
2023/04/05 01:28:09;;;;;;;0.40;0.40;;;0.70;99.90;;;;;;5048064;28;20441;-85
2023/04/05 01:30:38;;;;;;;0.50;0.50;;;0.60;99.90;;;;;;5041066;28;20438;-85
2023/04/05 01:33:06;;;;;;;0.50;0.50;;;0.80;99.90;;;;;;5046124;28;20549;-85
2023/04/05 01:35:43;;;;;;;0.50;0.50;;;0.90;99.90;;;;;;5044521;28;20496;-85
2023/04/05 01:38:12;;;;;;;0.40;0.40;;;0.90;99.90;;;;;;5034719;28;20422;-85
2023/04/05 01:40:39;;;;;;;0.40;0.40;;;1.00;99.90;;;;;;5053467;28;20974;-86
2023/04/05 01:43:15;;;;;;;0.30;0.30;;;1.00;99.90;;;;;;5067776;28;20433;-85
2023/04/05 01:45:42;;;;;;;0.47;0.47;;;1.00;99.90;;;;;;5053217;28;20448;-85
2023/04/05 01:48:08;;;;;;;0.40;0.40;;;0.90;99.90;;;;;;5052494;28;20545;-86
2023/04/05 01:50:34;;;;;;;0.40;0.40;;;1.10;99.90;;;;;;5049693;28;20522;-86
2023/04/05 01:53:00;;;;;;;0.40;0.40;;;1.20;99.90;;;;;;5040940;28;20190;-86
2023/04/05 01:55:25;;;;;;;0.50;0.50;;;1.30;99.90;;;;;;5047041;28;20861;-86
2023/04/05 01:57:53;;;;;;;0.40;0.40;;;1.30;99.90;;;;;;5048555;28;20231;-86
2023/04/05 02:00:18;;;;;;;0.40;0.40;;;1.20;99.90;;;;;;5051116;28;20190;-86
2023/04/05 02:02:44;;;;;;;0.40;0.40;;;1.20;99.90;;;;;;5049886;28;20460;-86
2023/04/05 02:05:09;;;;;;;0.47;0.47;;;1.20;99.90;;;;;;5065370;28;20236;-85
2023/04/05 02:07:35;;;;;;;0.40;0.40;;;1.30;99.90;;;;;;5050583;28;20266;-85
2023/04/05 02:10:00;;;;;;;0.30;0.30;;;1.40;99.90;;;;;;5060594;28;20198;-86
2023/04/05 02:12:26;;;;;;;0.43;0.43;;;1.30;99.90;;;;;;5051264;28;20262;-86
2023/04/05 02:14:51;;;;;;;0.40;0.40;;;1.30;99.90;;;;;;5043697;28;20583;-86
2023/04/05 02:17:17;;;;;;;0.40;0.40;;;1.30;99.90;;;;;;5049901;28;20205;-85
2023/04/05 02:19:45;;;;;;;0.40;0.40;;;1.30;99.90;;;;;;5032791;28;20266;-86
2023/04/05 02:22:11;;;;;;;0.40;0.40;;;1.30;99.90;;;;;;5041731;28;20568;-86
2023/04/05 02:24:36;;;;;;;0.40;0.40;;;1.30;99.90;;;;;;5046057;28;20448;-86
2023/04/05 02:27:02;;;;;;;0.33;0.33;;;1.20;99.90;;;;;;5039357;28;20445;-86
2023/04/05 02:29:28;;;;;;;0.40;0.40;;;1.30;99.90;;;;;;5051430;28;20182;-86
2023/04/05 02:31:54;;;;;;;0.40;0.40;;;1.40;99.90;;;;;;5050436;28;20265;-86
2023/04/05 02:34:21;;;;;;;0.40;0.40;;;1.60;99.90;;;;;;5050129;28;20245;-86
2023/04/05 02:36:51;;;;;;;0.40;0.40;;;1.60;99.90;;;;;;5037826;28;20206;-86
2023/04/05 02:39:17;;;;;;;0.30;0.30;;;1.50;99.90;;;;;;5049402;28;20444;-86
2023/04/05 02:41:43;;;;;;;0.40;0.40;;;1.50;99.90;;;;;;5050985;28;20422;-86
2023/04/05 02:44:08;;;;;;;0.40;0.40;;;1.60;99.90;;;;;;5051293;28;21271;-86
2023/04/05 02:46:34;;;;;;;0.40;0.40;;;1.50;99.90;;;;;;5038002;28;20188;-86
2023/04/05 02:48:59;;;;;;;0.37;0.37;;;1.60;99.90;;;;;;5034585;28;20694;-86
2023/04/05 02:51:25;;;;;;;0.40;0.40;;;1.50;99.90;;;;;;5044426;28;20178;-86
2023/04/05 02:53:51;;;;;;;0.30;0.30;;;1.50;99.90;;;;;;5040599;28;20175;-87
2023/04/05 02:56:17;;;;;;;0.40;0.40;;;1.60;99.90;;;;;;5031870;28;20970;-87
2023/04/05 02:58:43;;;;;;;0.40;0.40;;;1.70;99.90;;;;;;5031844;28;20445;-86
2023/04/05 03:01:09;;;;;;;0.40;0.40;;;1.70;99.90;;;;;;5041848;28;20499;-86
2023/04/05 03:03:34;;;;;;;0.40;0.40;;;1.70;99.90;;;;;;5050122;28;20183;-86
2023/04/05 03:06:09;;;;;;;0.33;0.33;;;1.80;99.90;;;;;;5051851;28;20231;-86
2023/04/05 03:08:37;;;;;;;0.40;0.40;;;1.80;99.90;;;;;;5040612;28;20178;-87
2023/04/05 03:11:05;;;;;;;0.40;0.40;;;1.90;99.90;;;;;;5045418;28;20510;-86
2023/04/05 03:13:30;;;;;;;0.50;0.50;;;1.90;99.90;;;;;;5040100;28;20428;-86
2023/04/05 03:15:56;;;;;;;0.40;0.40;;;1.90;99.90;;;;;;5050084;28;20481;-87
2023/04/05 03:18:24;;;;;;;0.40;0.40;;;1.90;99.90;;;;;;5041051;28;20671;-87
2023/04/05 03:20:55;;;;;;;0.40;0.40;;;1.80;99.90;;;;;;5042289;28;20187;-87
2023/04/05 03:23:25;;;;;;;0.30;0.30;;;1.70;99.90;;;;;;5054317;28;20433;-87
2023/04/05 03:25:54;;;;;;;0.40;0.40;;;1.70;99.90;;;;;;5046932;28;20445;-86
2023/04/05 03:28:19;;;;;;;0.40;0.40;;;1.80;99.90;;;;;;5046197;28;20487;-86
2023/04/05 03:30:45;;;;;;;0.30;0.30;;;1.70;99.90;;;;;;5036156;28;20492;-87
2023/04/05 03:33:10;;;;;;;0.50;0.50;;;1.70;99.90;;;;;;5033790;28;20291;-87
2023/04/05 03:35:36;;;;;;;0.40;0.40;;;1.70;99.90;;;;;;5041101;28;20222;-87
2023/04/05 03:38:01;;;;;;;0.40;0.40;;;1.80;99.90;;;;;;5037601;28;20197;-87
2023/04/05 03:40:27;;;;;;;0.40;0.40;;;1.70;99.90;;;;;;5046576;28;20233;-87
2023/04/05 03:42:52;;;;;;;0.30;0.30;;;1.70;99.90;;;;;;5042294;28;20270;-86
2023/04/05 03:45:18;;;;;;;0.40;0.40;;;1.80;99.90;;;;;;5038152;28;20206;-87
2023/04/05 03:47:44;;;;;;;0.33;0.33;;;1.80;99.90;;;;;;5048497;28;20191;-87
2023/04/05 03:50:10;;;;;;;0.40;0.40;;;1.80;99.90;;;;;;5031539;28;20430;-87
2023/04/05 03:52:35;;;;;;;0.40;0.40;;;1.70;99.90;;;;;;5030162;28;20186;-86
2023/04/05 03:55:01;;;;;;;0.33;0.33;;;1.70;99.90;;;;;;5031274;28;20207;-86
2023/04/05 03:57:28;;;;;;;0.40;0.40;;;1.60;99.90;;;;;;5047139;28;20680;-87
2023/04/05 03:59:54;;;;;;;0.33;0.33;;;1.70;99.90;;;;;;5034543;28;20556;-87
2023/04/05 04:02:19;;;;;;;0.40;0.40;;;1.70;99.90;;;;;;5044632;28;20448;-87
2023/04/05 04:04:46;;;;;;;0.50;0.50;;;1.70;99.90;;;;;;5048471;28;20187;-86
2023/04/05 04:07:11;;;;;;;0.40;0.40;;;1.60;99.90;;;;;;5046287;28;20318;-86
2023/04/05 04:09:37;;;;;;;0.40;0.40;;;1.70;99.90;;;;;;5047591;28;20548;-86
2023/04/05 04:12:03;;;;;;;0.40;0.40;;;1.70;99.90;;;;;;5045473;28;20459;-86
2023/04/05 04:14:28;;;;;;;0.40;0.40;;;1.60;99.90;;;;;;5044466;28;20202;-86
2023/04/05 04:16:54;;;;;;;0.40;0.40;;;1.50;99.90;;;;;;5044198;28;20202;-86
2023/04/05 04:19:19;;;;;;;0.50;0.50;;;1.50;99.90;;;;;;5055072;28;20198;-86
2023/04/05 04:21:50;;;;;;;0.30;0.30;;;1.30;99.90;;;;;;5059452;28;20187;-86
2023/04/05 04:24:18;;;;;;;0.40;0.40;;;1.40;99.90;;;;;;5039042;28;20325;-86
2023/04/05 04:26:45;;;;;;;0.50;0.50;;;1.40;99.90;;;;;;5036147;28;20440;-87
2023/04/05 04:29:11;;;;;;;0.40;0.40;;;1.30;99.90;;;;;;5038940;28;20605;-86
2023/04/05 04:31:38;;;;;;;0.40;0.40;;;1.20;99.90;;;;;;5047526;28;20448;-86
2023/04/05 04:34:04;;;;;;;0.40;0.40;;;1.20;99.90;;;;;;5037041;28;20486;-86
2023/04/05 04:36:38;;;;;;;0.50;0.50;;;1.20;99.90;;;;;;5037056;28;20986;-86
2023/04/05 04:39:06;;;;;;;0.50;0.50;;;1.10;99.90;;;;;;5043035;28;20487;-86
2023/04/05 04:41:35;;;;;;;0.47;0.47;;;1.10;99.90;;;;;;5040388;28;20975;-86
2023/04/05 04:44:04;;;;;;;0.47;0.47;;;1.00;99.90;;;;;;5039795;28;21006;-86
2023/04/05 04:46:41;;;;;;;0.50;0.50;;;0.90;99.90;;;;;;5036415;28;21098;-87
2023/04/05 04:49:07;;;;;;;0.50;0.50;;;0.90;99.90;;;;;;5032473;28;20446;-86
2023/04/05 04:51:32;;;;;;;0.50;0.50;;;1.00;99.90;;;;;;5034648;28;20442;-86
2023/04/05 04:53:58;;;;;;;0.40;0.40;;;0.90;99.90;;;;;;5036687;28;20240;-87
2023/04/05 04:56:24;;;;;;;0.50;0.50;;;0.80;99.90;;;;;;5035686;28;20227;-86
2023/04/05 04:58:52;;;;;;;0.43;0.43;;;0.80;99.90;;;;;;5041674;28;20191;-87
2023/04/05 05:01:17;;;;;;;0.40;0.40;;;0.90;99.90;;;;;;5028046;28;20198;-85
2023/04/05 05:03:43;;;;;;;0.40;0.40;;;0.90;99.90;;;;;;5037373;28;20441;-86
2023/04/05 05:06:08;;;;;;;0.50;0.50;;;0.90;99.90;;;;;;5044398;28;20187;-87
2023/04/05 05:08:34;;;;;;;0.50;0.50;;;0.80;99.90;;;;;;5038565;28;20236;-86
2023/04/05 05:11:00;;;;;;;0.50;0.50;;;0.80;99.90;;;;;;5044349;28;20654;-86
2023/04/05 05:13:25;;;;;;;0.40;0.40;;;0.90;99.90;;;;;;5030473;28;20240;-86
2023/04/05 05:15:51;;;;;;;0.40;0.40;;;0.90;99.90;;;;;;5036043;28;20516;-85
2023/04/05 05:18:17;;;;;;;0.43;0.43;;;0.80;99.90;;;;;;5035545;28;20194;-87
2023/04/05 05:20:42;;;;;;;0.50;0.50;;;0.80;99.90;;;;;;5035850;28;20449;-87
2023/04/05 05:23:08;;;;;;;0.50;0.50;;;0.80;99.90;;;;;;5042047;28;20285;-86
2023/04/05 05:25:34;;;;;;;0.40;0.40;;;0.80;99.90;;;;;;5041117;28;20187;-86
2023/04/05 05:27:59;;;;;;;0.50;0.50;;;0.90;99.90;;;;;;5036239;28;20183;-85
2023/04/05 05:30:25;;;;;;;0.50;0.50;;;0.80;99.90;;;;;;5035814;28;20186;-87
2023/04/05 05:32:51;;;;;;;0.50;0.50;;;0.90;99.90;;;;;;5029017;28;20230;-88
2023/04/05 05:35:17;;;;;;;0.40;0.40;;;1.00;99.90;;;;;;5041734;28;20477;-86
2023/04/05 05:37:43;;;;;;;0.50;0.50;;;1.00;99.90;;;;;;5037700;28;20190;-87
2023/04/05 05:40:09;;;;;;;0.43;0.43;;;0.90;99.90;;;;;;5046134;28;20201;-86
2023/04/05 05:42:34;;;;;;;0.50;0.50;;;0.90;99.90;;;;;;5048796;28;20194;-87
2023/04/05 05:45:03;;;;;;;0.40;0.40;;;0.80;99.90;;;;;;5036935;28;20433;-87
2023/04/05 05:47:29;;;;;;;0.40;0.40;;;0.80;99.90;;;;;;5046862;28;20196;-88
2023/04/05 05:49:54;;;;;;;0.40;0.40;;;0.90;99.90;;;;;;5046090;28;20619;-86
2023/04/05 05:52:20;;;;;;;0.50;0.50;;;1.00;99.90;;;;;;5033711;28;20186;-88
2023/04/05 05:54:46;;;;;;;0.50;0.50;;;1.20;99.90;;;;;;5039174;28;20210;-87
2023/04/05 05:57:11;;;;;;;0.30;0.30;;;1.20;99.90;;;;;;5041184;28;20575;-87
2023/04/05 05:59:37;;;;;;;0.40;0.40;;;1.20;99.90;;;;;;5037790;28;20490;-89
2023/04/05 06:02:03;;;;;;;0.50;0.50;;;1.20;99.90;;;;;;5041043;28;20198;-88
2023/04/05 06:04:28;;;;;;;0.50;0.50;;;1.30;99.90;;;;;;5033812;28;20663;-88
2023/04/05 06:06:54;;;;;;;0.50;0.50;;;1.40;99.90;;;;;;5043837;28;20609;-88
2023/04/05 06:09:22;;;;;;;0.40;0.40;;;1.40;99.90;;;;;;5057940;28;20199;-88
2023/04/05 06:11:51;;;;;;;0.50;0.50;;;1.60;99.90;;;;;;5036617;28;20578;-88
2023/04/05 06:14:16;;;;;;;0.50;0.50;;;1.80;99.90;;;;;;5043949;28;20441;-89
2023/04/05 06:16:42;;;;;;;0.50;0.50;;;1.90;99.90;;;;;;5042114;28;20995;-88
2023/04/05 06:19:07;;;;;;;0.60;0.60;;;2.10;99.90;;;;;;5033056;28;20196;-87
2023/04/05 06:21:33;;;;;;;0.50;0.50;;;2.30;99.90;;;;;;5035285;28;20558;-88
2023/04/05 06:23:58;;;;;;;0.50;0.50;;;2.40;99.90;;;;;;5037645;28;20182;-87
2023/04/05 06:26:27;;;;;;;0.50;0.50;;;2.50;99.90;;;;;;5040257;28;20191;-86
2023/04/05 06:28:54;;;;;;;0.40;0.40;;;2.60;99.90;;;;;;5037668;28;20195;-87
2023/04/05 06:31:24;;;;;;;0.50;0.50;;;2.70;99.90;;;;;;5030540;28;20507;-87
2023/04/05 06:33:50;;;;;;;0.40;0.40;;;2.80;99.90;;;;;;5040387;28;20482;-86
2023/04/05 06:36:15;;;;;;;0.40;0.40;;;2.90;99.90;;;;;;5038950;28;20848;-87
2023/04/05 06:38:41;;;;;;;0.40;0.40;;;3.00;99.90;;;;;;5040217;28;20179;-86
2023/04/05 06:41:06;;;;;;;0.40;0.40;;;3.00;99.90;;;;;;5045746;28;20197;-87
2023/04/05 06:43:32;;;;;;;0.40;0.40;;;3.00;99.90;;;;;;5047697;28;20197;-86
2023/04/05 06:45:58;;;;;;;0.40;0.40;;;2.90;99.90;;;;;;5047743;28;20182;-87
2023/04/05 06:48:24;;;;;;;0.47;0.47;;;2.90;99.90;;;;;;5053317;28;20182;-87
2023/04/05 06:51:10;;;;;;;0.40;0.40;;;2.80;99.90;;;;;;5050286;28;20444;-87
2023/04/05 06:53:35;;;;;;;0.40;0.40;;;3.10;99.90;;;;;;5045914;28;20191;-86
2023/04/05 06:56:01;;;;;;;0.40;0.40;;;3.10;99.90;;;;;;5047132;28;20480;-86
2023/04/05 06:58:27;;;;;;;0.50;0.50;;;3.00;99.90;;;;;;5045913;28;20233;-87
2023/04/05 07:00:52;;;;;;;0.40;0.40;;;3.40;99.90;;;;;;5035637;28;20187;-87
2023/04/05 07:03:18;;;;;;;0.40;0.40;;;3.30;99.90;;;;;;5047413;28;20190;-87
2023/04/05 07:05:52;;;;;;;0.50;0.50;;;3.30;99.90;;;;;;5042418;28;20194;-86
2023/04/05 07:08:19;;;;;;;0.40;0.40;;;3.40;99.90;;;;;;5039960;28;20655;-86
2023/04/05 07:10:45;;;;;;;0.40;0.40;;;3.20;99.90;;;;;;5052358;28;20418;-86
2023/04/05 07:13:10;;;;;;;0.40;0.40;;;3.20;99.90;;;;;;5048578;28;20531;-86
2023/04/05 07:15:36;;;;;;;0.40;0.40;;;3.40;99.90;;;;;;5048651;28;20823;-87
2023/04/05 07:18:01;;;;;;;0.40;0.40;;;3.50;99.90;;;;;;5050931;28;20213;-85
2023/04/05 07:20:27;;;;;;;0.40;0.40;;;3.60;99.90;;;;;;5039387;28;20285;-86
2023/04/05 07:22:52;;;;;;;0.40;0.40;;;3.70;99.90;;;;;;5048285;28;20183;-87
2023/04/05 07:25:18;;;;;;;0.37;0.37;;;4.00;99.90;;;;;;5050164;28;20194;-87
2023/04/05 07:27:43;;;;;;;0.40;0.40;;;3.90;99.90;;;;;;5050466;28;20241;-86
2023/04/05 07:30:09;;;;;;;0.40;0.40;;;4.00;99.90;;;;;;5050586;28;20655;-84
2023/04/05 07:32:35;;;;;;;0.40;0.40;;;4.20;99.90;;;;;;5052564;28;20210;-83
2023/04/05 07:35:00;;;;;;;0.40;0.40;;;4.30;99.90;;;;;;5066439;28;20468;-84
2023/04/05 07:37:26;;;;;;;0.40;0.40;;;4.00;99.90;;;;;;5066250;28;20193;-85
2023/04/05 07:39:52;;;;;;;0.40;0.40;;;4.00;99.90;;;;;;5068567;28;20599;-84
2023/04/05 07:42:20;;;;;;;0.40;0.40;;;4.30;99.90;;;;;;5068575;28;20201;-85
2023/04/05 07:44:46;;;;;;;0.40;0.40;;;4.40;99.90;;;;;;5062654;28;20205;-85
2023/04/05 07:47:11;;;;;;;0.37;0.37;;;4.60;99.90;;;;;;5061419;28;20459;-85
2023/04/05 07:49:37;;;;;;;0.40;0.40;;;4.70;99.90;;;;;;5057469;28;20436;-83
2023/04/05 07:52:03;;;;;;;0.30;0.30;;;4.90;99.90;;;;;;5060100;28;20187;-83
2023/04/05 07:54:33;;;;;;;0.30;0.30;;;4.90;99.90;;;;;;5061949;28;20251;-83
2023/04/05 07:56:59;;;;;;;0.33;0.33;;;4.90;99.90;;;;;;5038362;28;20433;-84
2023/04/05 07:59:25;;;;;;;0.30;0.30;;;4.40;99.90;;;;;;5058242;28;20976;-84
2023/04/05 08:01:51;;;;;;;0.40;0.40;;;4.50;99.90;;;;;;5056459;28;20583;-85
2023/04/05 08:04:18;;;;;;;0.40;0.40;;;4.70;99.90;;;;;;5041467;28;20197;-83
2023/04/05 08:06:43;;;;;;;0.33;0.33;;;4.90;99.90;;;;;;5044930;28;20638;-83
2023/04/05 08:09:10;;;;;;;0.40;0.40;;;4.70;99.90;;;;;;5051010;28;20468;-84
2023/04/05 08:11:35;;;;;;;0.40;0.40;;;5.10;99.90;;;;;;5070884;28;20182;-83
2023/04/05 08:14:01;;;;;;;0.30;0.30;;;5.20;99.90;;;;;;5071592;28;20535;-83
2023/04/05 08:16:27;;;;;;;0.30;0.30;;;5.40;99.90;;;;;;5056518;28;20227;-85
2023/04/05 08:18:52;;;;;;;0.30;0.30;;;5.40;99.90;;;;;;5058312;28;20606;-84
2023/04/05 08:21:18;;;;;;;0.37;0.37;;;5.50;99.90;;;;;;5067571;28;20738;-85
2023/04/05 08:23:43;;;;;;;0.23;0.23;;;5.50;99.90;;;;;;5049953;28;20197;-85
2023/04/05 08:26:09;;;;;;;0.23;0.23;;;5.60;99.90;;;;;;5059559;28;20186;-85
2023/04/05 08:28:35;;;;;;;0.20;0.20;;;5.70;99.90;;;;;;5068224;28;20788;-88
2023/04/05 08:31:00;;;;;;;0.20;0.20;;;6.00;99.90;;;;;;5043524;28;20232;-86
2023/04/05 08:33:29;;;;;;;0.20;0.20;;;6.20;99.90;;;;;;5043745;28;20244;-89
2023/04/05 08:35:56;;;;;;;0.20;0.20;;;5.90;99.90;;;;;;5065192;28;20232;-89
2023/04/05 08:38:22;;;;;;;0.30;0.30;;;6.00;99.90;;;;;;5038786;28;20440;-90
2023/04/05 08:40:48;;;;;;;0.30;0.30;;;6.20;99.90;;;;;;5057091;28;20597;-89
2023/04/05 08:43:50;;;;;;;0.20;0.20;;;6.10;99.90;;;;;;5048988;28;20463;-88
2023/04/05 08:46:17;;;;;;;0.20;0.20;;;6.20;99.90;;;;;;5033154;28;20288;-88
2023/04/05 08:48:43;;;;;;;0.20;0.20;;;6.40;99.90;;;;;;5046047;28;20443;-88
2023/04/05 08:51:09;;;;;;;0.20;0.20;;;6.50;99.90;;;;;;5061280;28;20455;-87
2023/04/05 08:53:35;;;;;;;0.20;0.20;;;6.40;99.90;;;;;;5061143;28;20733;-88
2023/04/05 08:56:01;;;;;;;0.20;0.20;;;6.60;99.90;;;;;;5042623;28;20214;-88
2023/04/05 08:58:27;;;;;;;0.20;0.20;;;6.50;99.90;;;;;;5043487;28;20504;-89
2023/04/05 09:00:55;;;;;;;0.20;0.20;;;6.30;99.90;;;;;;5045637;28;20531;-88
2023/04/05 09:03:22;;;;;;;0.20;0.20;;;6.30;99.90;;;;;;5043865;28;20432;-88
2023/04/05 09:05:50;;;;;;;0.20;0.20;;;6.30;99.90;;;;;;5043038;28;20450;-89
2023/04/05 09:08:16;;;;;;;0.20;0.20;;;6.60;99.90;;;;;;5055361;28;20498;-87
2023/04/05 09:10:43;;;;;;;0.20;0.20;;;6.80;99.90;;;;;;5061741;28;20444;-88
2023/04/05 09:13:09;;;;;;;0.20;0.20;;;7.10;99.90;;;;;;5061339;28;20508;-89
2023/04/05 09:15:36;;;;;;;0.20;0.20;;;7.00;99.90;;;;;;5038249;28;20566;-88
2023/04/05 09:18:02;;;;;;;0.13;0.13;;;7.30;99.90;;;;;;5034676;28;20449;-88
2023/04/05 09:20:27;;;;;;;0.20;0.20;;;7.60;99.90;;;;;;5040553;28;20448;-89
2023/04/05 09:22:55;;;;;;;0.20;0.20;;;7.50;99.90;;;;;;5055645;28;20519;-88
2023/04/05 09:25:38;;;;;;;0.20;0.20;;;7.50;99.90;;;;;;5039939;28;20285;-87
2023/04/05 09:28:05;;;;;;;0.20;0.20;;;7.90;99.90;;;;;;5054331;28;21008;-87
2023/04/05 09:30:31;;;;;;;0.10;0.10;;;8.70;99.90;;;;;;5046538;28;20523;-90
2023/04/05 09:32:57;;;;;;;0.20;0.20;;;8.30;99.90;;;;;;5066404;28;20475;-89
2023/04/05 09:35:30;;;;;;;0.20;0.20;;;8.70;99.90;;;;;;5059119;28;20479;-89
2023/04/05 09:38:01;;;;;;;0.20;0.20;;;8.70;99.90;;;;;;5063583;28;20182;-88
2023/04/05 09:40:44;;;;;;;0.10;0.10;;;9.00;99.90;;;;;;5060150;28;20501;-90
2023/04/05 09:43:32;;;;;;;0.10;0.10;;;9.20;99.90;;;;;;5047516;28;20497;-91
2023/04/05 09:45:58;;;;;;;0.10;0.10;;;10.00;99.90;;;;;;5065521;28;20513;-88
2023/04/05 09:48:46;;;;;;;0.10;0.10;;;10.10;99.90;;;;;;5067165;28;20463;-87
2023/04/05 09:51:14;;;;;;;0.10;0.10;;;10.50;99.90;;;;;;5071302;28;20197;-87
2023/04/05 09:53:58;;;;;;;0.10;0.10;;;;;;;;;;5067397;28;20473;-88
2023/04/05 09:56:25;;;;;;;0.07;0.07;;;;;;;;;;5058292;28;20487;-87
2023/04/05 09:58:51;;;;;;;0.10;0.10;;;;;;;;;;5066317;28;20801;-88
2023/04/05 10:01:21;;;;;;;0.10;0.10;;;;;;;;;;5037026;28;20473;-89
2023/04/05 10:03:52;;;;;;;0.10;0.10;;;;;;;;;;5066224;28;20440;-91
2023/04/05 10:06:19;;;;;;;0.07;0.07;;;;;;;;;;5057252;28;20494;-89
2023/04/05 10:08:49;;;;;;;0.10;0.10;;;;;;;;;;5066919;28;20433;-89
2023/04/05 10:11:18;;;;;;;0.00;0.00;;;;;;;;;;5043310;28;20441;-90
2023/04/05 10:13:44;;;;;;;0.00;0.00;;;;;;;;;;5072164;28;20432;-91
2023/04/05 10:16:13;;;;;;;0.03;0.03;;;;;;;;;;5043840;28;20948;-90
2023/04/05 10:18:51;;;;;;;0.10;0.10;;;12.00;99.90;;;;;;5060749;28;20472;-91
2023/04/05 10:21:22;;;;;;;0.00;0.00;;;12.00;99.90;;;;;;5051482;28;20471;-84
2023/04/05 10:24:04;;;;;;;0.07;0.07;;;11.90;99.90;;;;;;5043235;28;20873;-89
2023/04/05 10:26:40;;;;;;;0.03;0.03;;;12.20;99.90;;;;;;5041151;28;20449;-89
2023/04/05 10:29:11;;;;;;;0.10;0.10;;;12.70;99.90;;;;;;5047657;28;20483;-89
2023/04/05 10:31:54;;;;;;;0.00;0.00;;;12.10;99.90;;;;;;5045722;28;20444;-87
2023/04/05 10:34:31;;;;;;;0.00;0.00;;;10.70;99.90;;;;;;5039231;28;20489;-88
2023/04/05 10:37:00;;;;;;;0.07;0.07;;;11.80;99.90;;;;;;5045332;28;20487;-87
2023/04/05 10:39:46;;;;;;;0.10;0.10;;;12.80;99.90;;;;;;5046694;28;20440;-85
2023/04/05 10:42:26;;;;;;;0.00;0.00;;;13.60;99.90;;;;;;5053494;28;20436;-86
2023/04/05 10:45:01;;;;;;;0.00;0.00;;;13.80;99.90;;;;;;5049545;28;20509;-85
2023/04/05 10:47:30;;;;;;;0.00;0.00;;;12.90;99.90;;;;;;5051601;28;20468;-87
2023/04/05 10:49:59;;;;;;;0.00;0.00;;;11.60;99.90;;;;;;5036383;28;20459;-84
2023/04/05 10:52:26;;;;;;;0.07;0.07;;;12.30;99.90;;;;;;5034436;28;20421;-83
2023/04/05 10:54:51;;;;;;;0.00;0.00;;;12.40;99.90;;;;;;5061001;28;20448;-86
2023/04/05 10:57:19;;;;;;;0.00;0.00;;;13.10;99.90;;;;;;5035673;28;20460;-84
2023/04/05 10:59:46;;;;;;;0.00;0.00;;;13.80;99.90;;;;;;5040181;28;20179;-84
2023/04/05 11:02:13;;;;;;;0.00;0.00;;;14.60;99.90;;;;;;5041337;28;20509;-83
2023/04/05 11:04:42;;;;;;;0.00;0.00;;;;;;;;;;5067769;28;20474;-84
2023/04/05 11:07:18;;;;;;;0.00;0.00;;;;;;;;;;5059754;28;20440;-84
2023/04/05 11:09:55;;;;;;;0.00;0.00;;;;;;;;;;5067777;28;20451;-84
2023/04/05 11:12:41;;;;;;;0.00;0.00;;;;;;;;;;5059448;28;20840;-83
2023/04/05 11:15:26;;;;;;;0.00;0.00;;;;;;;;;;5069919;28;20479;-84
2023/04/05 11:18:23;;;;;;;0.00;0.00;;;14.00;99.90;;;;;;5043261;28;20441;-83
2023/04/05 11:20:50;;;;;;;0.00;0.00;;;;;;;;;;5056717;28;20462;-84
2023/04/05 11:23:17;;;;;;;0.00;0.00;;;;;;;;;;5065127;28;20517;-85
2023/04/05 11:26:07;;;;;;;0.00;0.00;;;;;;;;;;5051620;28;20922;-85
2023/04/05 11:28:38;;;;;;;0.00;0.00;;;;;;;;;;5039850;28;20489;-84
2023/04/05 11:31:17;;;;;;;0.10;0.10;;;;;;;;;;5057946;28;20436;-86
2023/04/05 11:33:47;;;;;;;0.00;0.00;;;;;;;;;;5061945;28;20483;-86
2023/04/05 11:36:14;;;;;;;0.00;0.00;;;;;;;;;;5045750;28;20484;-83
2023/04/05 11:38:43;;;;;;;0.00;0.00;;;13.90;99.90;;;;;;5067164;28;20543;-87
2023/04/05 11:41:16;;;;;;;0.00;0.00;;;;;;;;;;5049749;28;20610;-85
2023/04/05 11:43:51;;;;;;;0.10;0.10;;;;;;;;;;5049584;28;20449;-87
2023/04/05 11:46:20;;;;;;;0.10;0.10;;;;;;;;;;5064946;28;20942;-87
2023/04/05 11:48:49;;;;;;;0.10;0.10;;;12.30;99.90;;;;;;5045292;28;20928;-84
2023/04/05 11:51:15;;;;;;;0.00;0.00;;;;;;;;;;5056154;28;20485;-85
2023/04/05 11:53:50;;;;;;;0.00;0.00;;;;;;;;;;5066523;28;20463;-85
2023/04/05 11:56:18;;;;;;;0.10;0.10;;;;;;;;;;5048186;28;20482;-85
2023/04/05 11:58:45;;;;;;;0.10;0.10;;;;;;;;;;5062285;28;20522;-85
2023/04/05 12:01:11;;;;;;;0.00;0.00;;;;;;;;;;5061920;28;21125;-84
2023/04/05 12:03:37;;;;;;;0.00;0.00;;;;;;;;;;5041285;28;20474;-88
2023/04/05 12:06:04;;;;;;;0.00;0.00;;;;;;;;;;5058838;28;20524;-87
2023/04/05 12:08:49;;;;;;;0.00;0.00;;;14.50;99.90;;;;;;5058350;28;20879;-87
2023/04/05 12:11:16;;;;;;;0.00;0.00;;;14.50;99.90;;;;;;5048366;28;20459;-85
2023/04/05 12:13:41;;;;;;;0.00;0.00;;;13.10;90.90;;;;;;5064422;28;20507;-84
2023/04/05 12:16:08;;;;;;;0.00;0.00;;;13.00;91.40;;;;;;5061799;28;21071;-84
2023/04/05 12:18:37;;;;;;;0.00;0.00;;;;;;;;;;5037874;28;20237;-86
2023/04/05 12:21:12;;;;;;;0.00;0.00;;;;;;;;;;5051551;28;20468;-86
2023/04/05 12:23:38;;;;;;;0.00;0.00;;;;;;;;;;5061153;28;20991;-85
2023/04/05 12:26:06;;;;;;;0.00;0.00;;;13.40;86.40;;;;;;5062656;28;20531;-83
2023/04/05 12:28:51;;;;;;;0.00;0.00;;;;;;;;;;5042950;28;20929;-87
2023/04/05 12:31:33;;;;;;;0.00;0.00;;;13.20;99.90;;;;;;5050580;28;20452;-84
2023/04/05 12:33:59;;;;;;;0.00;0.00;;;12.80;90.50;;;;;;5042823;28;20566;-84
2023/04/05 12:36:27;;;;;;;0.00;0.00;;;;;;;;;;5066691;28;20484;-87
2023/04/05 12:38:56;;;;;;;0.00;0.00;;;;;;;;;;5065777;28;20197;-85
2023/04/05 12:41:33;;;;;;;0.00;0.00;;;;;;;;;;5048993;28;20510;-87
2023/04/05 12:44:00;;;;;;;0.00;0.00;;;;;;;;;;5057516;28;21040;-87
2023/04/05 12:46:42;;;;;;;0.00;0.00;;;;;;;;;;5045933;28;20513;-86
2023/04/05 12:49:11;;;;;;;0.00;0.00;;;;;;;;;;5064446;28;20532;-84
2023/04/05 12:51:42;;;;;;;0.00;0.00;;;;;;;;;;5061285;28;20513;-87
2023/04/05 12:54:11;;;;;;;0.00;0.00;;;17.10;99.90;;;;;;5045168;28;20515;-88
2023/04/05 12:56:37;;;;;;;0.00;0.00;;;17.30;99.90;;;;;;5060325;28;20492;-87
2023/04/05 12:59:06;;;;;;;0.00;0.00;;;;;;;;;;5059597;28;20954;-87
2023/04/05 13:01:32;;;;;;;0.00;0.00;;;;;;;;;;5035350;28;20445;-87
2023/04/05 13:04:00;;;;;;;0.00;0.00;;;;;;;;;;5070199;28;20531;-88
2023/04/05 13:06:26;;;;;;;0.00;0.00;;;;;;;;;;5067061;28;20931;-88
2023/04/05 13:08:58;;;;;;;0.10;0.00;;;;;;;;;;5056592;28;20429;-88
2023/04/05 13:11:24;;;;;;;0.00;0.00;;;;;;;;;;5060916;28;20475;-88
2023/04/05 13:13:50;;;;;;;0.10;0.00;;;;;;;;;;5063546;28;20446;-87
2023/04/05 13:16:15;;;;;;;0.10;0.00;;;19.50;90.60;;;;;;5037913;28;22478;-86